高雄終端管制區 - 高雄雷達席

METAR RCKH 290530Z 07003KT 050V120 6000 -RA FEW010 SCT020 BKN080 29/27 Q1002 NOSIG RMK A2959=

站台狀態:Offline
最後更新:2021-07-29 13:30:02